Time;durP1;ratioP1;P1;durP2;ratioP2;P2;SDS_P1;SDS_P2;PMS_P1;PMS_P2;Temp;Humidity;BMP_temperature;BMP_pressure;BME280_temperature;BME280_humidity;BME280_pressure;Samples;Min_cycle;Max_cycle;Signal;HPM_P1;HPM_P2
2021/05/04 00:00:58;;;;;;;3.75;1.98;;;;;;;7.54;67.35;96173.09;4950403;28;20669;-71
2021/05/04 00:03:31;;;;;;;3.45;2.22;;;;;;;7.52;67.82;96172.38;4912841;29;20321;-71
2021/05/04 00:05:58;;;;;;;3.28;1.75;;;;;;;7.61;67.36;96171.84;4917922;29;20236;-71
2021/05/04 00:08:25;;;;;;;4.90;2.03;;;;;;;7.60;67.26;96170.16;4923275;28;20647;-70
2021/05/04 00:10:52;;;;;;;5.20;2.45;;;;;;;7.64;67.11;96166.50;4914031;29;20201;-73
2021/05/04 00:13:20;;;;;;;3.60;2.10;;;;;;;7.68;67.03;96157.63;4911063;29;20196;-71
2021/05/04 00:15:46;;;;;;;2.83;1.88;;;;;;;7.72;67.04;96159.13;4909634;29;20837;-70
2021/05/04 00:18:14;;;;;;;3.97;1.92;;;;;;;7.73;67.06;96150.44;4919835;29;20191;-71
2021/05/04 00:20:41;;;;;;;3.78;1.90;;;;;;;7.69;67.30;96154.09;4912197;29;20279;-70
2021/05/04 00:23:09;;;;;;;4.53;1.90;;;;;;;7.75;67.01;96154.59;4912826;29;20185;-70
2021/05/04 00:25:35;;;;;;;3.97;2.03;;;;;;;7.80;66.58;96146.56;4914504;29;20216;-70
2021/05/04 00:28:03;;;;;;;6.05;2.25;;;;;;;7.59;67.57;96143.44;4913769;29;20509;-70
2021/05/04 00:30:33;;;;;;;3.33;1.95;;;;;;;7.61;67.85;96141.59;4925078;29;20238;-71
2021/05/04 00:33:01;;;;;;;7.70;2.88;;;;;;;7.61;67.91;96141.59;4915004;29;20189;-69
2021/05/04 00:35:28;;;;;;;4.10;2.20;;;;;;;7.59;67.78;96134.84;4913702;29;20743;-69
2021/05/04 00:37:54;;;;;;;5.20;1.90;;;;;;;7.56;68.25;96141.03;4918993;29;20223;-70
2021/05/04 00:40:22;;;;;;;4.05;2.53;;;;;;;7.50;68.59;96137.97;4911703;29;20482;-70
2021/05/04 00:42:49;;;;;;;3.85;2.10;;;;;;;7.47;68.52;96127.78;4921210;29;20208;-71
2021/05/04 00:45:27;;;;;;;3.72;2.15;;;;;;;7.46;68.75;96126.09;4921015;29;20914;-71
2021/05/04 00:47:54;;;;;;;3.75;2.13;;;;;;;7.38;68.78;96117.94;4914380;29;20201;-70
2021/05/04 00:50:21;;;;;;;2.95;2.33;;;;;;;7.50;68.74;96123.25;4907270;29;20223;-71
2021/05/04 00:52:50;;;;;;;3.63;1.98;;;;;;;7.53;68.68;96109.31;4926114;29;20243;-69
2021/05/04 00:55:18;;;;;;;2.70;1.80;;;;;;;7.47;69.06;96107.06;4915156;29;20694;-70
2021/05/04 00:57:48;;;;;;;2.67;1.88;;;;;;;7.31;69.30;96090.75;4909221;29;20243;-72
2021/05/04 01:00:16;;;;;;;5.05;2.50;;;;;;;7.27;69.84;96100.44;4909296;29;20770;-70
2021/05/04 01:02:44;;;;;;;3.53;2.10;;;;;;;7.25;70.33;96093.69;4905412;29;20189;-70
2021/05/04 01:05:12;;;;;;;4.38;2.40;;;;;;;7.21;70.49;96097.38;4918499;28;20534;-70
2021/05/04 01:07:40;;;;;;;4.22;1.95;;;;;;;7.18;70.65;96087.19;4927982;28;20192;-70
2021/05/04 01:10:07;;;;;;;4.72;2.47;;;;;;;7.14;69.91;96081.34;4926545;28;20606;-69
2021/05/04 01:12:35;;;;;;;4.32;1.98;;;;;;;7.14;70.55;96078.75;4926123;29;20749;-70
2021/05/04 01:15:04;;;;;;;4.65;2.15;;;;;;;7.19;70.45;96074.16;4925632;28;20222;-70
2021/05/04 01:17:31;;;;;;;4.15;2.05;;;;;;;7.18;70.49;96074.25;4900714;29;20212;-69
2021/05/04 01:19:58;;;;;;;4.30;1.67;;;;;;;7.14;70.47;96065.81;4928481;29;20758;-69
2021/05/04 01:22:25;;;;;;;3.67;2.03;;;;;;;7.13;70.73;96068.53;4919068;29;20823;-71
2021/05/04 01:24:52;;;;;;;3.10;2.10;;;;;;;7.16;70.84;96056.25;4918337;29;20286;-70
2021/05/04 01:27:20;;;;;;;2.55;1.85;;;;;;;7.21;70.70;96055.97;4926948;29;20192;-70
2021/05/04 01:29:46;;;;;;;6.72;2.25;;;;;;;7.12;70.46;96046.13;4926828;29;20230;-69
2021/05/04 01:32:14;;;;;;;3.53;1.80;;;;;;;7.10;70.17;96035.03;4930417;29;20639;-70
2021/05/04 01:34:41;;;;;;;3.45;1.77;;;;;;;7.03;70.33;96018.19;4928598;29;20750;-70
2021/05/04 01:37:08;;;;;;;2.58;1.90;;;;;;;7.16;70.60;96029.53;4924126;29;20547;-70
2021/05/04 01:39:44;;;;;;;4.85;2.40;;;;;;;7.16;70.59;96034.69;4918806;28;20686;-70
2021/05/04 01:42:12;;;;;;;3.67;1.80;;;;;;;7.08;70.44;96021.38;4934688;29;20187;-70
2021/05/04 01:44:39;;;;;;;5.32;2.28;;;;;;;6.97;70.80;96026.31;4933080;28;20686;-70
2021/05/04 01:47:07;;;;;;;3.30;2.20;;;;;;;6.97;70.72;96018.53;4923978;29;20180;-70
2021/05/04 01:49:34;;;;;;;9.45;2.40;;;;;;;7.01;71.06;96014.88;4908755;29;20533;-70
2021/05/04 01:52:03;;;;;;;3.65;2.20;;;;;;;6.98;71.54;96015.03;4925039;29;20219;-70
2021/05/04 01:54:30;;;;;;;9.43;2.20;;;;;;;6.99;71.49;96002.03;4925691;28;20509;-70
2021/05/04 01:56:59;;;;;;;3.55;2.08;;;;;;;7.07;70.93;95999.00;4920627;29;20514;-70
2021/05/04 01:59:27;;;;;;;4.97;2.35;;;;;;;7.04;71.09;96005.19;4922435;29;20223;-70
2021/05/04 02:01:55;;;;;;;7.80;2.40;;;;;;;7.06;70.64;95987.00;4918986;29;20702;-70
2021/05/04 02:04:23;;;;;;;4.00;2.08;;;;;;;7.17;70.82;95990.63;4920491;28;20675;-69
2021/05/04 02:06:51;;;;;;;3.80;2.38;;;;;;;7.14;70.82;95989.97;4924069;29;20218;-71
2021/05/04 02:09:18;;;;;;;3.28;2.42;;;;;;;7.07;70.71;95973.13;4926332;28;20598;-71
2021/05/04 02:11:45;;;;;;;5.88;2.25;;;;;;;7.18;69.90;95992.28;4922312;29;20188;-71
2021/05/04 02:14:13;;;;;;;3.38;2.25;;;;;;;7.25;69.94;95977.22;4923934;29;20658;-71
2021/05/04 02:16:40;;;;;;;2.38;1.60;;;;;;;7.44;69.07;95982.97;4927291;29;20643;-73
2021/05/04 02:19:07;;;;;;;4.10;1.75;;;;;;;7.63;67.76;95968.84;4924034;29;20747;-70
2021/05/04 02:21:34;;;;;;;5.90;1.90;;;;;;;7.68;68.22;95977.16;4918263;28;20575;-70
2021/05/04 02:24:00;;;;;;;3.20;1.98;;;;;;;7.62;67.90;95956.81;4924559;29;20609;-70
2021/05/04 02:26:27;;;;;;;2.75;1.80;;;;;;;7.63;68.35;95952.44;4918942;29;20207;-70
2021/05/04 02:28:54;;;;;;;3.85;2.30;;;;;;;7.60;68.36;95952.66;4927406;28;20227;-70
2021/05/04 02:31:22;;;;;;;4.25;2.10;;;;;;;7.53;68.88;95952.19;4921831;29;20314;-70
2021/05/04 02:33:49;;;;;;;3.67;2.05;;;;;;;7.52;68.91;95949.69;4923828;29;20307;-72
2021/05/04 02:36:16;;;;;;;6.05;2.20;;;;;;;7.50;68.90;95946.38;4918158;29;20594;-71
2021/05/04 02:38:43;;;;;;;4.05;1.90;;;;;;;7.46;69.27;95960.41;4917324;28;20655;-70
2021/05/04 02:41:10;;;;;;;3.13;1.95;;;;;;;7.54;68.80;95940.91;4922147;29;20271;-70
2021/05/04 02:43:38;;;;;;;4.93;2.00;;;;;;;7.52;69.14;95928.97;4918666;28;20227;-71
2021/05/04 02:46:06;;;;;;;2.95;1.70;;;;;;;7.47;69.23;95933.59;4928996;29;20640;-71
2021/05/04 02:48:39;;;;;;;3.85;1.92;;;;;;;7.49;69.06;95913.63;4923396;28;20227;-71
2021/05/04 02:51:07;;;;;;;9.38;2.30;;;;;;;7.42;69.60;95917.53;4927809;29;20195;-71
2021/05/04 02:53:35;;;;;;;4.43;1.80;;;;;;;7.38;69.70;95913.44;4920135;28;20662;-73
2021/05/04 02:56:02;;;;;;;2.20;1.88;;;;;;;7.31;70.63;95914.75;4900833;29;20667;-71
2021/05/04 02:58:29;;;;;;;2.95;1.90;;;;;;;7.28;70.38;95904.59;4923769;29;20450;-72
2021/05/04 03:00:56;;;;;;;5.97;2.45;;;;;;;7.25;70.96;95899.56;4918110;29;20250;-72
2021/05/04 03:03:24;;;;;;;4.82;2.70;;;;;;;7.21;71.00;95898.94;4926440;29;20908;-71
2021/05/04 03:05:52;;;;;;;3.88;2.08;;;;;;;7.27;71.26;95897.72;4925479;29;20195;-72
2021/05/04 03:08:19;;;;;;;5.65;2.50;;;;;;;7.23;71.44;95901.44;4932450;29;20611;-71
2021/05/04 03:10:46;;;;;;;3.28;2.13;;;;;;;7.20;71.27;95896.47;4927102;29;20211;-71
2021/05/04 03:13:13;;;;;;;2.67;1.98;;;;;;;7.20;71.96;95891.28;4894445;29;20188;-71
2021/05/04 03:15:40;;;;;;;9.77;1.77;;;;;;;7.14;71.90;95891.66;4923660;29;20227;-72
2021/05/04 03:18:07;;;;;;;2.20;1.70;;;;;;;7.08;72.46;95884.25;4927528;29;20196;-71
2021/05/04 03:20:35;;;;;;;3.80;2.00;;;;;;;7.10;72.17;95890.16;4918284;29;20689;-71
2021/05/04 03:23:02;;;;;;;5.13;2.50;;;;;;;7.07;71.99;95874.81;4927525;29;20402;-71
2021/05/04 03:25:29;;;;;;;3.45;2.10;;;;;;;7.10;71.84;95877.22;4917810;29;20691;-71
2021/05/04 03:27:58;;;;;;;3.30;2.30;;;;;;;7.19;71.97;95874.91;4924870;29;20656;-71
2021/05/04 03:30:26;;;;;;;4.68;2.35;;;;;;;7.23;71.96;95873.78;4924970;28;20616;-72
2021/05/04 03:32:54;;;;;;;3.70;2.53;;;;;;;7.22;72.01;95873.91;4923776;28;20543;-73
2021/05/04 03:35:21;;;;;;;5.40;2.58;;;;;;;7.30;71.85;95879.44;4924460;28;20270;-71
2021/05/04 03:37:49;;;;;;;9.73;2.67;;;;;;;7.36;71.65;95868.72;4913394;29;20198;-72
2021/05/04 03:40:17;;;;;;;4.30;2.55;;;;;;;7.37;71.60;95862.59;4922003;28;20256;-72
2021/05/04 03:42:44;;;;;;;2.40;2.03;;;;;;;7.33;71.67;95869.72;4931363;29;20200;-72
2021/05/04 03:45:13;;;;;;;4.07;2.15;;;;;;;7.35;71.12;95860.09;4920729;28;20220;-71
2021/05/04 03:47:41;;;;;;;5.20;1.90;;;;;;;7.36;71.18;95851.41;4917591;29;20640;-72
2021/05/04 03:50:13;;;;;;;2.80;1.98;;;;;;;7.26;71.71;95847.72;4923595;29;20675;-71
2021/05/04 03:52:40;;;;;;;2.60;1.77;;;;;;;7.33;71.98;95848.19;4918796;29;20531;-72
2021/05/04 03:55:10;;;;;;;3.88;1.60;;;;;;;7.47;70.25;95840.41;4921326;29;20231;-71
2021/05/04 03:57:38;;;;;;;3.08;1.90;;;;;;;7.46;70.82;95841.31;4917735;29;20648;-73
2021/05/04 04:00:08;;;;;;;4.40;1.92;;;;;;;7.35;72.06;95833.41;4925938;29;20236;-71
2021/05/04 04:02:35;;;;;;;3.53;1.67;;;;;;;7.30;71.94;95820.72;4901518;29;20262;-71
2021/05/04 04:05:02;;;;;;;3.10;1.75;;;;;;;7.31;71.80;95829.34;4921548;28;20246;-73
2021/05/04 04:07:30;;;;;;;2.42;1.90;;;;;;;7.31;71.51;95821.56;4927214;29;20275;-70
2021/05/04 04:09:57;;;;;;;3.65;2.13;;;;;;;7.45;70.94;95813.78;4923669;29;20828;-71
2021/05/04 04:12:24;;;;;;;2.65;1.95;;;;;;;7.62;70.38;95816.13;4921616;29;20187;-71
2021/05/04 04:14:53;;;;;;;3.60;2.20;;;;;;;7.72;69.99;95806.88;4925258;28;20223;-72
2021/05/04 04:17:20;;;;;;;2.58;1.40;;;;;;;7.86;69.72;95810.25;4921968;29;20541;-72
2021/05/04 04:19:47;;;;;;;2.17;1.65;;;;;;;8.08;67.86;95812.28;4919426;28;20247;-72
2021/05/04 04:22:14;;;;;;;2.67;1.30;;;;;;;8.37;66.61;95806.06;4927150;29;20199;-72
2021/05/04 04:24:41;;;;;;;4.30;1.80;;;;;;;8.44;66.71;95803.81;4922534;28;20388;-74
2021/05/04 04:27:08;;;;;;;3.38;1.70;;;;;;;8.61;66.03;95795.72;4920903;29;20792;-72
2021/05/04 04:29:36;;;;;;;2.85;1.75;;;;;;;8.71;65.37;95786.38;4922183;29;20559;-71
2021/05/04 04:32:05;;;;;;;3.80;1.20;;;;;;;8.78;65.51;95792.81;4921758;29;20594;-71
2021/05/04 04:34:32;;;;;;;3.70;2.37;;;;;;;8.83;64.86;95787.31;4925291;28;20223;-71
2021/05/04 04:36:59;;;;;;;2.58;1.83;;;;;;;8.94;64.53;95788.22;4928118;29;20557;-71
2021/05/04 04:39:26;;;;;;;3.43;1.70;;;;;;;9.03;64.49;95782.44;4917004;29;20242;-72
2021/05/04 04:41:53;;;;;;;4.70;1.77;;;;;;;9.06;64.16;95789.19;4921696;29;20974;-72
2021/05/04 04:44:20;;;;;;;2.50;1.80;;;;;;;9.09;64.12;95783.75;4925926;28;20549;-71
2021/05/04 04:46:47;;;;;;;3.93;2.17;;;;;;;9.14;63.73;95777.31;4925994;29;20610;-72
2021/05/04 04:49:16;;;;;;;3.33;1.63;;;;;;;9.17;63.99;95781.47;4925807;28;20834;-72
2021/05/04 04:51:43;;;;;;;4.53;2.10;;;;;;;9.16;63.78;95772.84;4930842;29;20443;-72
2021/05/04 04:54:11;;;;;;;1.83;1.40;;;;;;;9.29;62.98;95767.63;4921369;29;20951;-72
2021/05/04 04:56:38;;;;;;;4.50;1.90;;;;;;;9.33;63.33;95769.91;4925486;29;20467;-71
2021/05/04 04:59:05;;;;;;;3.50;1.80;;;;;;;9.38;62.89;95766.97;4922700;29;20946;-73
2021/05/04 05:01:33;;;;;;;2.30;1.53;;;;;;;9.45;62.86;95753.44;4928243;29;20434;-71
2021/05/04 05:04:01;;;;;;;5.20;1.80;;;;;;;9.51;62.57;95760.81;4919564;28;20482;-70
2021/05/04 05:06:29;;;;;;;3.60;1.80;;;;;;;9.63;61.67;95769.50;4929559;29;20587;-71
2021/05/04 05:08:56;;;;;;;1.70;1.47;;;;;;;9.66;61.28;95761.50;4931251;28;20518;-71
2021/05/04 05:11:23;;;;;;;1.77;1.50;;;;;;;9.78;61.45;95766.63;4917798;29;20521;-72
2021/05/04 05:13:50;;;;;;;3.53;1.80;;;;;;;9.80;61.38;95758.72;4908080;29;20846;-72
2021/05/04 05:16:19;;;;;;;4.80;1.97;;;;;;;9.87;61.32;95765.16;4902984;29;21035;-70
2021/05/04 05:18:51;;;;;;;2.40;1.50;;;;;;;9.85;61.28;95762.66;4922950;29;20504;-74
2021/05/04 05:21:19;;;;;;;2.90;1.90;;;;;;;9.83;61.45;95761.94;4920032;29;20446;-72
2021/05/04 05:23:47;;;;;;;2.90;1.30;;;;;;;9.86;61.52;95764.31;4919846;29;20924;-72
2021/05/04 05:26:15;;;;;;;2.67;1.70;;;;;;;9.93;60.92;95759.47;4925716;29;20447;-72
2021/05/04 05:28:42;;;;;;;1.97;1.83;;;;;;;10.00;61.14;95764.13;4930240;28;20507;-74
2021/05/04 05:31:09;;;;;;;4.33;1.50;;;;;;;9.93;61.15;95759.47;4920433;29;20728;-72
2021/05/04 05:33:36;;;;;;;2.70;1.50;;;;;;;9.93;61.21;95749.94;4927657;29;20451;-73
2021/05/04 05:36:04;;;;;;;5.30;1.87;;;;;;;9.99;61.26;95759.88;4920988;29;20622;-71
2021/05/04 05:38:35;;;;;;;4.87;1.70;;;;;;;10.02;61.22;95764.84;4924256;28;20450;-73
2021/05/04 05:41:04;;;;;;;1.97;1.33;;;;;;;9.93;60.85;95739.53;4921122;29;20435;-71
2021/05/04 05:43:31;;;;;;;1.50;1.13;;;;;;;10.15;60.62;95751.78;4916837;28;21124;-71
2021/05/04 05:45:58;;;;;;;2.80;1.50;;;;;;;10.24;60.69;95749.34;4926211;29;20769;-72
2021/05/04 05:48:26;;;;;;;3.30;1.60;;;;;;;10.36;59.43;95750.22;4931223;28;20445;-72
2021/05/04 05:50:52;;;;;;;1.43;1.27;;;;;;;10.39;59.50;95748.22;4925689;29;20692;-71
2021/05/04 05:53:20;;;;;;;2.37;1.70;;;;;;;10.43;59.24;95738.41;4924137;28;20949;-72
2021/05/04 05:55:48;;;;;;;2.40;1.57;;;;;;;10.53;58.53;95735.00;4918290;29;20444;-70
2021/05/04 05:58:16;;;;;;;2.10;1.40;;;;;;;10.66;58.40;95740.09;4926869;29;20447;-70
2021/05/04 06:00:43;;;;;;;5.70;1.50;;;;;;;10.71;58.35;95737.97;4919608;29;20906;-71
2021/05/04 06:03:10;;;;;;;3.33;1.17;;;;;;;10.79;57.78;95735.63;4927119;28;20467;-71
2021/05/04 06:05:37;;;;;;;3.80;1.23;;;;;;;10.90;57.21;95739.06;4939099;28;20572;-71
2021/05/04 06:08:05;;;;;;;2.47;1.43;;;;;;;10.95;57.57;95742.16;4948028;28;20976;-71
2021/05/04 06:10:32;;;;;;;3.10;1.77;;;;;;;11.03;56.89;95725.91;4948019;28;20497;-70
2021/05/04 06:13:01;;;;;;;3.93;1.30;;;;;;;11.08;56.96;95731.59;4943323;28;20763;-70
2021/05/04 06:15:29;;;;;;;2.70;1.40;;;;;;;11.12;56.81;95720.81;4939036;28;20470;-71
2021/05/04 06:17:59;;;;;;;1.83;1.10;;;;;;;11.18;56.10;95709.09;4950112;28;20832;-71
2021/05/04 06:20:26;;;;;;;4.23;1.57;;;;;;;11.28;56.37;95725.66;4949445;28;20490;-71
2021/05/04 06:22:54;;;;;;;2.67;1.17;;;;;;;11.14;56.31;95699.88;4947119;28;20984;-71
2021/05/04 06:25:21;;;;;;;4.80;1.40;;;;;;;11.32;56.58;95709.69;4948894;28;20853;-73
2021/05/04 06:27:47;;;;;;;2.30;1.33;;;;;;;11.37;56.12;95717.97;4941929;28;20431;-73
2021/05/04 06:30:15;;;;;;;1.87;1.10;;;;;;;11.44;55.65;95700.06;4923576;28;20829;-71
2021/05/04 06:32:44;;;;;;;2.03;1.20;;;;;;;11.48;55.08;95704.09;4938347;28;20435;-72
2021/05/04 06:35:15;;;;;;;3.37;1.13;;;;;;;11.57;55.11;95704.16;4940747;28;20526;-73
2021/05/04 06:37:42;;;;;;;2.70;0.90;;;;;;;11.68;54.90;95706.78;4952064;28;20833;-72
2021/05/04 06:40:11;;;;;;;7.13;1.50;;;;;;;11.64;55.37;95723.59;4949361;28;20466;-72
2021/05/04 06:42:39;;;;;;;4.70;1.63;;;;;;;11.75;54.80;95714.91;4944065;28;20530;-71
2021/05/04 06:45:07;;;;;;;3.47;1.43;;;;;;;11.81;54.70;95706.59;4945576;28;20485;-72
2021/05/04 06:47:34;;;;;;;3.57;1.53;;;;;;;11.86;53.93;95700.06;4945887;28;20504;-72
2021/05/04 06:50:05;;;;;;;2.13;1.40;;;;;;;11.95;54.27;95694.13;4922598;28;20466;-71
2021/05/04 06:52:32;;;;;;;5.73;1.30;;;;;;;11.98;53.86;95695.63;4943505;28;20773;-72
2021/05/04 06:54:59;;;;;;;4.10;1.30;;;;;;;12.07;53.80;95695.72;4940239;28;21210;-71
2021/05/04 06:57:27;;;;;;;5.70;1.40;;;;;;;12.23;53.16;95703.09;4913680;28;20481;-72
2021/05/04 06:59:54;;;;;;;2.53;1.40;;;;;;;12.27;52.77;95689.69;4940178;28;20473;-71
2021/05/04 07:02:21;;;;;;;2.20;1.10;;;;;;;12.38;52.86;95684.38;4941691;28;20431;-70
2021/05/04 07:04:48;;;;;;;1.70;1.10;;;;;;;12.47;51.97;95686.25;4934332;28;20510;-72
2021/05/04 07:07:16;;;;;;;2.13;1.63;;;;;;;12.59;52.80;95679.97;4942622;28;20745;-70
2021/05/04 07:09:44;;;;;;;2.70;1.73;;;;;;;12.74;50.82;95691.72;4945987;28;20449;-73
2021/05/04 07:12:12;;;;;;;4.07;1.40;;;;;;;12.90;51.49;95674.63;4956859;28;20457;-74
2021/05/04 07:14:39;;;;;;;3.87;1.40;;;;;;;13.12;50.29;95665.81;4940270;28;20455;-72
2021/05/04 07:17:06;;;;;;;5.03;1.03;;;;;;;13.21;50.51;95678.06;4944463;28;20855;-73
2021/05/04 07:19:37;;;;;;;1.47;1.27;;;;;;;13.26;50.07;95670.63;4928645;28;21029;-72
2021/05/04 07:22:05;;;;;;;2.27;1.00;;;;;;;13.33;50.12;95677.81;4948809;28;20434;-72
2021/05/04 07:24:42;;;;;;;2.27;1.10;;;;;;;13.48;49.70;95675.66;4942793;28;20973;-72
2021/05/04 07:27:09;;;;;;;2.77;1.10;;;;;;;13.59;50.27;95691.22;4947951;28;20438;-71
2021/05/04 07:29:37;;;;;;;1.93;0.90;;;;;;;13.72;50.58;95704.88;4944687;28;20840;-74
2021/05/04 07:32:06;;;;;;;2.70;1.20;;;;;;;13.82;50.67;95674.31;4942984;28;20450;-72
2021/05/04 07:34:33;;;;;;;1.40;0.97;;;;;;;13.87;49.44;95667.69;4944293;28;20675;-71
2021/05/04 07:37:00;;;;;;;1.37;0.97;;;;;;;13.86;50.19;95649.53;4949257;28;20466;-72
2021/05/04 07:39:27;;;;;;;1.47;1.10;;;;;;;13.86;49.93;95645.13;4939031;28;21047;-72
2021/05/04 07:41:55;;;;;;;2.40;1.13;;;;;;;13.89;50.17;95644.03;4950181;28;20438;-71
2021/05/04 07:44:22;;;;;;;6.30;1.87;;;;;;;13.97;50.55;95647.63;4938314;28;20822;-71
2021/05/04 07:46:49;;;;;;;2.10;1.40;;;;;;;14.00;50.58;95646.50;4942780;28;20830;-71
2021/05/04 07:49:22;;;;;;;2.37;1.20;;;;;;;14.12;50.62;95661.09;4942046;28;21030;-72
2021/05/04 07:51:49;;;;;;;3.60;1.23;;;;;;;14.13;50.49;95667.97;4938763;28;21053;-71
2021/05/04 07:54:19;;;;;;;1.87;1.30;;;;;;;14.18;50.19;95665.81;4942733;28;20513;-71
2021/05/04 07:56:46;;;;;;;3.37;1.10;;;;;;;14.08;50.02;95665.78;4941687;28;20841;-72
2021/05/04 07:59:14;;;;;;;2.67;1.43;;;;;;;14.12;50.07;95661.09;4942652;28;20934;-70
2021/05/04 08:01:40;;;;;;;7.80;3.70;;;;;;;14.20;50.63;95654.22;4942903;28;20431;-71
2021/05/04 08:04:07;;;;;;;14.50;1.63;;;;;;;14.28;49.31;95677.06;4946217;28;20462;-72
2021/05/04 08:06:34;;;;;;;4.77;1.60;;;;;;;14.31;49.52;95666.34;4937310;28;20439;-72
2021/05/04 08:09:02;;;;;;;2.03;1.03;;;;;;;14.47;48.74;95662.19;4943223;28;20481;-73
2021/05/04 08:11:29;;;;;;;2.67;0.90;;;;;;;14.50;48.34;95624.38;4917931;28;20454;-73
2021/05/04 08:13:56;;;;;;;3.77;1.10;;;;;;;14.68;49.00;95669.84;4944755;28;20452;-72
2021/05/04 08:16:24;;;;;;;2.70;1.57;;;;;;;14.77;48.69;95669.81;4942265;28;21049;-73
2021/05/04 08:18:52;;;;;;;1.13;0.90;;;;;;;14.71;48.42;95659.91;4943334;28;20774;-72
2021/05/04 08:21:32;;;;;;;1.70;1.10;;;;;;;14.63;48.44;95656.34;4947646;28;20442;-72
2021/05/04 08:24:00;;;;;;;3.10;1.50;;;;;;;14.45;48.67;95658.06;4945442;28;20473;-74
2021/05/04 08:26:27;;;;;;;6.00;1.17;;;;;;;14.44;48.89;95659.03;4951520;28;20921;-73
2021/05/04 08:28:54;;;;;;;1.20;0.93;;;;;;;14.45;49.07;95653.63;4942645;28;20961;-72
2021/05/04 08:31:21;;;;;;;16.53;1.90;;;;;;;14.45;49.12;95660.66;4944229;28;20442;-72
2021/05/04 08:33:49;;;;;;;1.80;1.17;;;;;;;14.55;48.97;95662.31;4942147;28;20796;-72
2021/05/04 08:36:16;;;;;;;3.83;1.37;;;;;;;14.59;48.58;95655.78;4928035;28;20968;-71
2021/05/04 08:38:43;;;;;;;1.50;0.90;;;;;;;14.75;48.49;95656.00;4953280;28;20495;-71
2021/05/04 08:41:10;;;;;;;7.33;1.27;;;;;;;14.78;48.17;95645.25;4947045;28;20439;-71
2021/05/04 08:43:38;;;;;;;6.40;1.23;;;;;;;14.87;48.53;95643.59;4946104;28;20922;-72
2021/05/04 08:46:05;;;;;;;3.67;1.30;;;;;;;14.86;48.50;95648.00;4948721;28;20450;-71
2021/05/04 08:48:32;;;;;;;8.43;1.30;;;;;;;14.87;47.80;95644.41;4934774;28;20949;-71
2021/05/04 08:50:59;;;;;;;2.20;1.13;;;;;;;14.65;47.98;95641.28;4953234;28;20766;-71
2021/05/04 08:53:49;;;;;;;2.40;1.33;;;;;;;14.59;48.98;95634.84;4943485;28;20956;-71
2021/05/04 08:56:16;;;;;;;2.13;0.97;;;;;;;14.53;48.77;95660.78;4943535;28;20442;-72
2021/05/04 08:58:45;;;;;;;1.97;1.00;;;;;;;14.45;48.22;95647.56;4947509;28;20793;-71
2021/05/04 09:01:14;;;;;;;2.13;1.20;;;;;;;14.45;49.14;95655.44;4949287;28;20437;-71
2021/05/04 09:03:45;;;;;;;4.70;1.70;;;;;;;14.47;49.12;95667.44;4950942;28;20598;-71
2021/05/04 09:06:15;;;;;;;4.50;1.33;;;;;;;14.59;49.48;95668.09;4943560;28;20442;-71
2021/05/04 09:08:47;;;;;;;1.80;1.40;;;;;;;14.65;49.19;95660.47;4944762;28;20466;-72
2021/05/04 09:11:34;;;;;;;4.97;1.40;;;;;;;14.76;49.09;95656.84;4941970;28;20446;-72
2021/05/04 09:14:07;;;;;;;4.87;1.30;;;;;;;14.63;48.69;95648.47;4940062;28;20794;-71
2021/05/04 09:16:39;;;;;;;5.53;1.40;;;;;;;14.76;49.44;95646.38;4940639;28;20481;-72
2021/05/04 09:21:53;;;;;;;5.90;1.33;;;;;;;14.90;48.06;95646.72;4920649;28;20458;-71
2021/05/04 09:24:30;;;;;;;1.40;1.07;;;;;;;14.89;47.30;95673.91;4929720;28;20850;-72
2021/05/04 09:27:03;;;;;;;10.57;3.33;;;;;;;14.73;47.88;95615.25;4940116;28;20438;-72
2021/05/04 09:29:32;;;;;;;1.77;0.90;;;;;;;14.91;47.75;95656.25;4932029;28;20917;-71
2021/05/04 09:32:13;;;;;;;1.20;0.90;;;;;;;15.08;48.20;95668.59;4939638;28;20450;-70
2021/05/04 09:34:59;;;;;;;1.77;1.10;;;;;;;15.06;48.51;95660.06;4944661;28;20474;-71
2021/05/04 09:37:30;;;;;;;1.60;1.20;;;;;;;15.29;48.31;95665.72;4939011;28;21140;-71
2021/05/04 09:40:17;;;;;;;2.00;1.07;;;;;;;15.36;47.46;95664.19;4915864;28;20843;-70
2021/05/04 09:43:05;;;;;;;2.53;0.90;;;;;;;15.01;46.86;95651.78;4942100;28;20480;-70
2021/05/04 09:45:34;;;;;;;3.60;1.20;;;;;;;14.99;47.56;95647.66;4941011;28;20475;-72
2021/05/04 09:48:21;;;;;;;2.80;1.30;;;;;;;15.03;47.86;95675.25;4940168;28;20517;-71
2021/05/04 09:50:56;;;;;;;5.83;1.50;;;;;;;14.99;47.48;95640.63;4940321;28;20973;-71
2021/05/04 09:53:35;;;;;;;1.00;0.90;;;;;;;15.19;47.33;95652.66;4937246;28;20529;-69
2021/05/04 09:56:03;;;;;;;1.53;0.97;;;;;;;15.25;47.57;95659.13;4943575;28;20441;-72
2021/05/04 09:58:38;;;;;;;4.63;1.50;;;;;;;15.20;48.47;95656.94;4937674;28;20517;-73
2021/05/04 10:01:08;;;;;;;6.93;1.40;;;;;;;15.24;48.02;95647.00;4942920;28;20454;-74
2021/05/04 10:03:36;;;;;;;4.27;1.30;;;;;;;15.28;47.20;95643.09;4942107;28;20483;-72
2021/05/04 10:06:05;;;;;;;2.50;1.00;;;;;;;15.08;47.47;95642.38;4947232;28;20434;-73
2021/05/04 10:08:35;;;;;;;1.40;0.93;;;;;;;15.22;47.80;95648.91;4944863;28;20442;-74
2021/05/04 10:11:05;;;;;;;2.60;1.40;;;;;;;15.30;46.81;95656.88;4921314;28;20899;-73
2021/05/04 10:13:33;;;;;;;2.97;1.07;;;;;;;15.23;46.14;95648.78;4944704;28;20919;-74
2021/05/04 10:16:02;;;;;;;2.10;1.27;;;;;;;15.27;46.25;95651.94;4945008;28;20432;-74
2021/05/04 10:18:29;;;;;;;3.03;1.20;;;;;;;15.16;45.40;95639.00;4921601;28;20843;-73
2021/05/04 10:21:00;;;;;;;6.10;2.80;;;;;;;14.98;45.76;95651.25;4941366;28;20438;-73
2021/05/04 10:23:30;;;;;;;3.60;1.90;;;;;;;15.04;46.89;95645.44;4946293;28;20465;-73
2021/05/04 10:26:04;;;;;;;4.23;1.17;;;;;;;15.05;46.10;95636.59;4941287;28;20447;-71
2021/05/04 10:28:35;;;;;;;3.43;1.33;;;;;;;15.02;46.59;95632.47;4935702;28;20771;-74
2021/05/04 10:31:04;;;;;;;1.97;1.13;;;;;;;14.96;46.58;95619.94;4948282;28;21083;-74
2021/05/04 10:33:32;;;;;;;4.57;1.47;;;;;;;14.98;46.81;95638.16;4942986;28;20986;-71
2021/05/04 10:36:04;;;;;;;2.40;1.20;;;;;;;15.12;45.87;95628.00;4939119;28;20549;-71
2021/05/04 10:38:51;;;;;;;2.40;1.17;;;;;;;15.01;45.77;95650.94;4945099;28;21157;-73
2021/05/04 10:41:20;;;;;;;1.60;1.07;;;;;;;15.07;46.93;95634.66;4939700;28;20443;-75
2021/05/04 10:43:59;;;;;;;3.00;1.07;;;;;;;15.09;46.46;95607.31;4942019;28;20450;-74
2021/05/04 10:46:39;;;;;;;3.37;1.10;;;;;;;15.08;46.47;95626.66;4938327;28;20901;-74
2021/05/04 10:49:08;;;;;;;3.20;1.23;;;;;;;15.17;46.85;95640.69;4942789;28;20499;-74
2021/05/04 10:51:47;;;;;;;2.40;1.43;;;;;;;15.26;46.95;95618.81;4939502;28;20914;-74
2021/05/04 10:54:15;;;;;;;3.73;1.20;;;;;;;15.29;46.83;95636.88;4944943;28;20470;-73
2021/05/04 10:56:45;;;;;;;2.33;1.23;;;;;;;15.23;46.58;95632.22;4935695;28;20814;-73
2021/05/04 10:59:14;;;;;;;2.10;1.40;;;;;;;15.21;47.18;95618.44;4937320;28;20937;-73
2021/05/04 11:02:11;;;;;;;1.90;1.03;;;;;;;15.23;46.35;95634.84;4943371;28;20841;-73
2021/05/04 11:04:40;;;;;;;1.40;1.00;;;;;;;15.07;45.94;95613.69;4940016;28;20537;-73
2021/05/04 11:07:08;;;;;;;2.03;1.00;;;;;;;15.11;46.72;95646.50;4939010;28;20784;-73
2021/05/04 11:09:39;;;;;;;2.57;1.17;;;;;;;15.14;45.99;95614.75;4930757;28;20455;-74
2021/05/04 11:12:08;;;;;;;5.33;1.57;;;;;;;15.19;46.19;95609.91;4938917;28;20446;-75
2021/05/04 11:14:38;;;;;;;5.10;1.10;;;;;;;15.13;46.10;95597.38;4946628;28;20857;-73
2021/05/04 11:17:17;;;;;;;3.93;1.40;;;;;;;15.23;46.26;95619.09;4945039;28;20855;-73
2021/05/04 11:19:45;;;;;;;6.20;1.47;;;;;;;15.34;46.74;95611.06;4942014;28;20791;-74
2021/05/04 11:22:25;;;;;;;3.07;1.40;;;;;;;15.36;46.79;95619.63;4946321;28;20988;-74
2021/05/04 11:24:54;;;;;;;3.00;1.50;;;;;;;15.44;46.52;95607.41;4939310;28;20957;-73
2021/05/04 11:27:27;;;;;;;3.20;1.40;;;;;;;15.37;46.13;95616.84;4923913;28;20454;-73
2021/05/04 11:29:56;;;;;;;1.83;1.20;;;;;;;15.26;46.18;95613.59;4938513;28;20581;-72
2021/05/04 11:32:25;;;;;;;4.07;1.63;;;;;;;15.27;46.33;95609.97;4942504;28;20501;-75
2021/05/04 11:34:59;;;;;;;1.67;1.00;;;;;;;15.28;46.85;95616.88;4934075;28;20946;-73
2021/05/04 11:37:45;;;;;;;1.30;0.90;;;;;;;15.22;46.71;95622.69;4910304;28;20989;-73
2021/05/04 11:40:18;;;;;;;1.50;1.00;;;;;;;15.19;47.42;95644.78;4947498;28;20470;-75
2021/05/04 11:42:47;;;;;;;1.20;0.90;;;;;;;14.99;47.97;95626.69;4946801;28;20489;-74
2021/05/04 11:45:16;;;;;;;2.13;1.20;;;;;;;14.83;49.01;95636.97;4962568;28;20470;-73
2021/05/04 11:47:45;;;;;;;1.90;1.13;;;;;;;14.75;49.96;95650.78;4948326;28;20443;-73